createdAt,value
2022-10-18T00:01:53.329Z,16.60
2022-10-18T00:04:19.857Z,16.59
2022-10-18T00:06:46.313Z,16.59
2022-10-18T00:09:13.122Z,16.57
2022-10-18T00:11:39.793Z,16.58
2022-10-18T00:14:06.358Z,16.56
2022-10-18T00:16:34.190Z,16.56
2022-10-18T00:19:00.801Z,16.55
2022-10-18T00:21:27.722Z,16.55
2022-10-18T00:23:54.475Z,16.56
2022-10-18T00:26:22.874Z,16.56
2022-10-18T00:28:52.039Z,16.56
2022-10-18T00:31:21.597Z,16.56
2022-10-18T00:33:50.985Z,16.57
2022-10-18T00:36:17.459Z,16.58
2022-10-18T00:38:44.408Z,16.59
2022-10-18T00:41:14.198Z,16.60
2022-10-18T00:43:59.261Z,16.61
2022-10-18T00:46:27.268Z,16.62
2022-10-18T00:48:56.430Z,16.62
2022-10-18T00:51:25.546Z,16.66
2022-10-18T00:53:52.222Z,16.70
2022-10-18T00:56:19.754Z,16.75
2022-10-18T00:58:47.686Z,16.79
2022-10-18T01:01:14.598Z,16.82
2022-10-18T01:03:41.233Z,16.87
2022-10-18T01:06:09.585Z,16.89
2022-10-18T01:08:46.963Z,16.93
2022-10-18T01:11:28.227Z,16.95
2022-10-18T01:14:05.812Z,17.00
2022-10-18T01:16:38.087Z,17.01
2022-10-18T01:19:14.729Z,17.02
2022-10-18T01:21:50.097Z,17.03
2022-10-18T01:24:53.103Z,17.04
2022-10-18T01:27:38.538Z,17.04
2022-10-18T01:30:39.370Z,17.06
2022-10-18T01:33:14.968Z,17.06
2022-10-18T01:35:49.229Z,17.05
2022-10-18T01:38:18.637Z,17.06
2022-10-18T01:40:48.260Z,17.07
2022-10-18T01:43:17.010Z,17.09
2022-10-18T01:45:46.427Z,17.08
2022-10-18T01:48:13.911Z,17.10
2022-10-18T01:50:40.698Z,17.12
2022-10-18T01:53:21.604Z,17.13
2022-10-18T01:55:55.367Z,17.12
2022-10-18T01:58:27.829Z,17.13
2022-10-18T02:01:04.179Z,17.13
2022-10-18T02:03:30.645Z,17.14
2022-10-18T02:06:05.670Z,17.16
2022-10-18T02:08:38.408Z,17.18
2022-10-18T02:11:08.538Z,17.18
2022-10-18T02:13:38.643Z,17.21
2022-10-18T02:16:10.399Z,17.21
2022-10-18T02:18:40.789Z,17.23
2022-10-18T02:21:10.653Z,17.24
2022-10-18T02:23:38.750Z,17.24
2022-10-18T02:26:05.932Z,17.24
2022-10-18T02:28:32.495Z,17.25
2022-10-18T02:31:06.595Z,17.26
2022-10-18T02:33:43.309Z,17.27
2022-10-18T02:36:15.294Z,17.26
2022-10-18T02:38:45.295Z,17.26
2022-10-18T02:41:12.127Z,17.26
2022-10-18T02:43:38.596Z,17.29
2022-10-18T02:46:05.765Z,17.28
2022-10-18T02:48:33.573Z,17.28
2022-10-18T02:50:59.990Z,17.28
2022-10-18T02:53:26.560Z,17.28
2022-10-18T02:55:52.955Z,17.29
2022-10-18T02:58:19.411Z,17.28
2022-10-18T03:00:45.859Z,17.29
2022-10-18T03:03:12.301Z,17.29
2022-10-18T03:05:40.060Z,17.30
2022-10-18T03:08:06.474Z,17.30
2022-10-18T03:10:32.907Z,17.29
2022-10-18T03:12:59.471Z,17.28
2022-10-18T03:15:25.914Z,17.27
2022-10-18T03:17:52.360Z,17.27
2022-10-18T03:20:18.803Z,17.29
2022-10-18T03:22:46.607Z,17.29
2022-10-18T03:25:12.997Z,17.29
2022-10-18T03:27:39.483Z,17.27
2022-10-18T03:30:06.882Z,17.27
2022-10-18T03:32:33.623Z,17.25
2022-10-18T03:35:00.248Z,17.27
2022-10-18T03:37:26.702Z,17.26
2022-10-18T03:39:54.452Z,17.26
2022-10-18T03:42:20.979Z,17.26
2022-10-18T03:44:47.420Z,17.25
2022-10-18T03:47:13.858Z,17.24
2022-10-18T03:49:40.318Z,17.23
2022-10-18T03:52:06.802Z,17.23
2022-10-18T03:54:33.210Z,17.21
2022-10-18T03:57:01.068Z,17.19
2022-10-18T03:59:27.674Z,17.19
2022-10-18T04:01:54.198Z,17.17
2022-10-18T04:04:20.796Z,17.18
2022-10-18T04:06:47.264Z,17.16
2022-10-18T04:09:14.188Z,17.18
2022-10-18T04:11:40.706Z,17.16
2022-10-18T04:14:08.613Z,17.15
2022-10-18T04:19:06.416Z,17.09
2022-10-18T04:21:32.848Z,17.08
2022-10-18T04:23:59.345Z,17.06
2022-10-18T04:26:25.827Z,17.05
2022-10-18T04:28:52.329Z,17.05
2022-10-18T04:31:20.122Z,17.03
2022-10-18T04:33:46.574Z,17.00
2022-10-18T04:36:13.033Z,16.98
2022-10-18T04:38:39.480Z,16.99
2022-10-18T04:44:27.753Z,16.99
2022-10-18T04:46:55.500Z,16.98
2022-10-18T04:49:21.918Z,16.97
2022-10-18T04:51:48.378Z,16.97
2022-10-18T04:54:14.881Z,16.94
2022-10-18T04:56:41.323Z,16.93
2022-10-18T04:59:07.762Z,16.92
2022-10-18T05:01:34.228Z,16.92
2022-10-18T05:04:02.055Z,16.91
2022-10-18T05:06:28.463Z,16.92
2022-10-18T05:08:54.974Z,16.91
2022-10-18T05:11:21.405Z,16.91
2022-10-18T05:13:50.114Z,16.90
2022-10-18T05:16:17.484Z,16.88
2022-10-18T05:18:43.952Z,16.84
2022-10-18T05:21:11.731Z,16.81
2022-10-18T05:23:38.401Z,16.80
2022-10-18T05:26:06.421Z,16.77
2022-10-18T05:28:39.189Z,16.75
2022-10-18T05:31:06.986Z,16.73
2022-10-18T05:33:33.715Z,16.73
2022-10-18T05:36:00.461Z,16.73
2022-10-18T05:38:28.331Z,16.72
2022-10-18T05:40:54.780Z,16.72
2022-10-18T05:43:21.187Z,16.70
2022-10-18T05:45:48.518Z,16.70
2022-10-18T05:48:14.945Z,16.67
2022-10-18T05:50:41.386Z,16.67
2022-10-18T05:53:12.507Z,16.64
2022-10-18T05:55:52.433Z,16.62
2022-10-18T05:58:18.845Z,16.61
2022-10-18T06:00:45.335Z,16.58
2022-10-18T06:03:11.767Z,16.56
2022-10-18T06:08:08.007Z,16.55
2022-10-18T06:10:38.785Z,16.56
2022-10-18T06:13:06.659Z,16.56
2022-10-18T06:15:33.094Z,16.54
2022-10-18T06:17:59.524Z,16.54
2022-10-18T06:20:25.964Z,16.53
2022-10-18T06:22:52.569Z,16.52
2022-10-18T06:25:19.029Z,16.51
2022-10-18T06:27:45.469Z,16.50
2022-10-18T06:30:13.480Z,16.50
2022-10-18T06:32:39.940Z,16.50
2022-10-18T06:35:07.265Z,16.50
2022-10-18T06:37:34.080Z,16.51
2022-10-18T06:40:00.939Z,16.51
2022-10-18T06:42:27.517Z,16.52
2022-10-18T06:44:53.982Z,16.53
2022-10-18T06:47:21.755Z,16.54
2022-10-18T06:49:48.222Z,16.55
2022-10-18T06:52:17.040Z,16.56
2022-10-18T06:54:45.450Z,16.56
2022-10-18T06:57:12.041Z,16.56
2022-10-18T06:59:38.471Z,16.59
2022-10-18T07:02:05.004Z,16.60
2022-10-18T07:04:33.123Z,16.61
2022-10-18T07:06:59.518Z,16.63
2022-10-18T07:09:26.034Z,16.63
2022-10-18T07:11:52.487Z,16.65
2022-10-18T07:14:18.910Z,16.68
2022-10-18T07:16:45.380Z,16.70
2022-10-18T07:19:11.857Z,16.70
2022-10-18T07:21:39.788Z,16.70
2022-10-18T07:24:06.558Z,16.70
2022-10-18T07:26:35.938Z,16.70
2022-10-18T07:29:06.601Z,16.69
2022-10-18T07:31:33.494Z,16.65
2022-10-18T07:33:59.997Z,16.64
2022-10-18T07:36:26.846Z,16.65
2022-10-18T07:38:54.630Z,16.66
2022-10-18T07:41:21.197Z,16.68
2022-10-18T07:43:50.096Z,16.70
2022-10-18T07:46:17.608Z,16.70
2022-10-18T07:48:44.177Z,16.71
2022-10-18T07:51:10.937Z,16.73
2022-10-18T07:53:38.254Z,16.73
2022-10-18T07:56:09.595Z,16.73
2022-10-18T07:58:36.232Z,16.75
2022-10-18T08:01:03.129Z,16.75
2022-10-18T08:03:29.661Z,16.76
2022-10-18T08:05:56.145Z,16.76
2022-10-18T08:08:23.524Z,16.75
2022-10-18T08:10:50.484Z,16.76
2022-10-18T08:13:18.724Z,16.76
2022-10-18T08:15:45.368Z,16.77
2022-10-18T08:18:12.502Z,16.78
2022-10-18T08:20:42.788Z,16.79
2022-10-18T08:23:09.397Z,16.79
2022-10-18T08:28:02.201Z,16.79
2022-10-18T08:30:30.094Z,16.80
2022-10-18T08:32:56.498Z,16.80
2022-10-18T08:35:22.912Z,16.82
2022-10-18T08:37:49.490Z,16.81
2022-10-18T08:40:16.381Z,16.82
2022-10-18T08:43:00.518Z,16.81
2022-10-18T08:45:41.975Z,16.81
2022-10-18T08:48:17.777Z,16.81
2022-10-18T08:50:44.624Z,16.81
2022-10-18T08:53:17.696Z,16.83
2022-10-18T08:55:48.760Z,16.84
2022-10-18T08:58:18.835Z,16.86
2022-10-18T09:00:55.635Z,16.87
2022-10-18T09:03:38.562Z,16.89
2022-10-18T09:06:19.835Z,16.91
2022-10-18T09:09:11.224Z,16.93
2022-10-18T09:11:51.420Z,16.95
2022-10-18T09:14:53.717Z,16.96
2022-10-18T09:17:31.315Z,17.00
2022-10-18T09:20:14.335Z,17.00
2022-10-18T09:22:51.745Z,17.02
2022-10-18T09:25:20.014Z,17.02
2022-10-18T09:27:54.770Z,17.02
2022-10-18T09:30:39.490Z,17.01
2022-10-18T09:33:25.923Z,17.01
2022-10-18T09:35:57.160Z,17.03
2022-10-18T09:38:28.581Z,17.03
2022-10-18T09:40:58.445Z,17.03
2022-10-18T09:43:30.427Z,17.03
2022-10-18T09:45:57.729Z,17.05
2022-10-18T09:48:29.207Z,17.05
2022-10-18T09:51:01.810Z,17.07
2022-10-18T09:53:36.258Z,17.08
2022-10-18T09:56:06.110Z,17.10
2022-10-18T09:58:44.076Z,17.10
2022-10-18T10:01:12.877Z,17.10
2022-10-18T10:03:40.093Z,17.11
2022-10-18T10:06:24.348Z,17.11
2022-10-18T10:08:57.637Z,17.11
2022-10-18T10:11:29.395Z,17.11
2022-10-18T10:13:57.544Z,17.11
2022-10-18T10:16:25.821Z,17.12
2022-10-18T10:18:52.992Z,17.11
2022-10-18T10:21:21.493Z,17.12
2022-10-18T10:23:54.481Z,17.11
2022-10-18T10:26:23.237Z,17.12
2022-10-18T10:28:50.213Z,17.12
2022-10-18T10:31:19.148Z,17.14
2022-10-18T10:33:47.093Z,17.15
2022-10-18T10:36:17.532Z,17.16
2022-10-18T10:38:45.392Z,17.17
2022-10-18T10:41:20.900Z,17.18
2022-10-18T10:43:48.932Z,17.21
2022-10-18T10:46:17.512Z,17.21
2022-10-18T10:48:49.648Z,17.23
2022-10-18T10:51:28.353Z,17.24
2022-10-18T10:54:01.203Z,17.24
2022-10-18T10:56:29.717Z,17.24
2022-10-18T10:59:01.500Z,17.25
2022-10-18T11:01:30.785Z,17.27
2022-10-18T11:03:59.779Z,17.28
2022-10-18T11:06:35.223Z,17.30
2022-10-18T11:09:06.165Z,17.32
2022-10-18T11:11:39.464Z,17.34
2022-10-18T11:14:25.877Z,17.35
2022-10-18T11:17:04.208Z,17.36
2022-10-18T11:19:39.682Z,17.35
2022-10-18T11:22:11.906Z,17.32
2022-10-18T11:24:39.672Z,17.30
2022-10-18T11:27:14.484Z,17.28
2022-10-18T11:29:54.364Z,17.30
2022-10-18T11:32:31.185Z,17.34
2022-10-18T11:35:15.714Z,17.38
2022-10-18T11:37:58.229Z,17.43
2022-10-18T11:40:53.899Z,17.51
2022-10-18T11:43:30.108Z,17.58
2022-10-18T11:46:11.027Z,17.63
2022-10-18T11:48:52.018Z,17.69
2022-10-18T11:51:38.670Z,17.72
2022-10-18T11:54:28.894Z,17.73
2022-10-18T11:57:04.961Z,17.73
2022-10-18T11:59:38.162Z,17.74
2022-10-18T12:02:40.874Z,17.74
2022-10-18T12:05:23.134Z,17.70
2022-10-18T12:07:55.353Z,17.71
2022-10-18T12:10:31.730Z,17.71
2022-10-18T12:13:16.322Z,17.72
2022-10-18T12:15:43.984Z,17.73
2022-10-18T12:25:12.511Z,17.89
2022-10-18T12:27:44.046Z,17.95
2022-10-18T12:30:20.534Z,17.98
2022-10-18T12:33:03.386Z,17.97
2022-10-18T12:35:49.931Z,17.99
2022-10-18T12:38:21.404Z,17.99
2022-10-18T12:40:50.907Z,17.99
2022-10-18T12:43:21.045Z,18.00
2022-10-18T12:45:52.852Z,18.01
2022-10-18T12:48:30.278Z,18.06
2022-10-18T12:50:59.687Z,18.07
2022-10-18T12:53:28.023Z,18.11
2022-10-18T12:55:55.396Z,18.13
2022-10-18T12:58:25.472Z,18.15
2022-10-18T13:01:04.465Z,18.18
2022-10-18T13:03:59.460Z,18.21
2022-10-18T13:07:11.968Z,18.26
2022-10-18T13:09:39.910Z,18.27
2022-10-18T13:12:48.129Z,18.31
2022-10-18T13:15:37.400Z,18.32
2022-10-18T13:18:17.512Z,18.33
2022-10-18T13:20:54.538Z,18.30
2022-10-18T13:23:38.158Z,18.31
2022-10-18T13:26:17.469Z,18.34
2022-10-18T13:28:51.588Z,18.40
2022-10-18T13:31:22.580Z,18.48
2022-10-18T13:33:50.839Z,18.58
2022-10-18T13:36:23.663Z,18.70
2022-10-18T13:39:01.248Z,18.85
2022-10-18T13:41:32.721Z,18.96
2022-10-18T13:44:23.857Z,19.02
2022-10-18T13:47:32.489Z,19.02
2022-10-18T13:50:22.130Z,19.00
2022-10-18T13:53:36.966Z,18.96
2022-10-18T13:56:24.622Z,18.93
2022-10-18T13:59:14.338Z,18.97
2022-10-18T14:01:54.794Z,19.04
2022-10-18T14:04:45.202Z,19.05
2022-10-18T14:07:18.073Z,19.00
2022-10-18T14:09:49.998Z,18.95
2022-10-18T14:12:28.375Z,18.92
2022-10-18T14:15:02.333Z,18.85
2022-10-18T14:17:36.059Z,18.79
2022-10-18T14:20:13.413Z,18.73
2022-10-18T14:22:47.716Z,18.66
2022-10-18T14:25:21.881Z,18.63
2022-10-18T14:27:50.944Z,18.57
2022-10-18T14:30:20.904Z,18.51
2022-10-18T14:32:49.383Z,18.50
2022-10-18T14:35:31.981Z,18.51
2022-10-18T14:38:01.347Z,18.52
2022-10-18T14:40:31.558Z,18.53
2022-10-18T14:43:02.516Z,18.53
2022-10-18T14:45:29.032Z,18.50
2022-10-18T14:47:55.478Z,18.49
2022-10-18T14:50:30.266Z,18.48
2022-10-18T14:52:57.260Z,18.44
2022-10-18T14:55:26.988Z,18.39
2022-10-18T14:57:53.561Z,18.35
2022-10-18T15:02:54.473Z,18.22
2022-10-18T15:05:23.577Z,18.15
2022-10-18T15:07:51.935Z,18.08
2022-10-18T15:10:21.951Z,18.01
2022-10-18T15:13:08.765Z,17.92
2022-10-18T15:15:36.474Z,17.88
2022-10-18T15:18:03.641Z,17.82
2022-10-18T15:20:31.666Z,17.79
2022-10-18T15:23:21.331Z,17.74
2022-10-18T15:25:48.261Z,17.70
2022-10-18T15:28:27.362Z,17.65
2022-10-18T15:30:54.029Z,17.58
2022-10-18T15:33:23.930Z,17.53
2022-10-18T15:35:52.036Z,17.46
2022-10-18T15:38:25.895Z,17.39
2022-10-18T15:40:53.214Z,17.34
2022-10-18T15:43:43.634Z,17.28
2022-10-18T15:46:30.306Z,17.22
2022-10-18T15:49:18.682Z,17.16
2022-10-18T15:51:48.713Z,17.09
2022-10-18T15:54:18.316Z,17.03
2022-10-18T15:56:45.747Z,16.95
2022-10-18T15:59:23.912Z,16.86
2022-10-18T16:01:50.604Z,16.78
2022-10-18T16:04:20.565Z,16.68
2022-10-18T16:06:47.032Z,16.59
2022-10-18T16:09:17.163Z,16.50
2022-10-18T16:11:44.162Z,16.41
2022-10-18T16:14:10.590Z,16.32
2022-10-18T16:16:40.105Z,16.24
2022-10-18T16:19:06.933Z,16.15
2022-10-18T16:21:35.523Z,16.07
2022-10-18T16:24:02.290Z,15.97
2022-10-18T16:26:29.321Z,15.90
2022-10-18T16:28:56.562Z,15.81
2022-10-18T16:31:25.510Z,15.74
2022-10-18T16:33:54.381Z,15.66
2022-10-18T16:36:22.680Z,15.57
2022-10-18T16:38:50.050Z,15.50
2022-10-18T16:41:17.165Z,15.42
2022-10-18T16:43:44.701Z,15.34
2022-10-18T16:46:16.302Z,15.25
2022-10-18T16:48:43.504Z,15.19
2022-10-18T16:51:11.827Z,15.12
2022-10-18T16:53:38.466Z,15.04
2022-10-18T16:56:11.412Z,14.97
2022-10-18T16:58:37.901Z,14.89
2022-10-18T17:01:06.799Z,14.83
2022-10-18T17:03:36.158Z,14.76
2022-10-18T17:06:02.638Z,14.69
2022-10-18T17:08:30.330Z,14.63
2022-10-18T17:10:58.488Z,14.58
2022-10-18T17:13:26.240Z,14.53
2022-10-18T17:15:53.286Z,14.47
2022-10-18T17:18:21.745Z,14.42
2022-10-18T17:20:49.570Z,14.37
2022-10-18T17:23:16.443Z,14.32
2022-10-18T17:25:57.534Z,14.27
2022-10-18T17:28:31.628Z,14.20
2022-10-18T17:30:58.216Z,14.14
2022-10-18T17:33:24.707Z,14.08
2022-10-18T17:35:51.184Z,14.04
2022-10-18T17:38:17.691Z,13.97
2022-10-18T17:40:45.679Z,13.92
2022-10-18T17:43:12.177Z,13.87
2022-10-18T17:45:46.269Z,13.83
2022-10-18T17:48:12.681Z,13.77
2022-10-18T17:50:39.938Z,13.71
2022-10-18T17:53:06.494Z,13.66
2022-10-18T17:55:33.964Z,13.61
2022-10-18T17:58:01.920Z,13.57
2022-10-18T18:00:28.420Z,13.51
2022-10-18T18:02:56.683Z,13.47
2022-10-18T18:05:23.318Z,13.41
2022-10-18T18:07:49.873Z,13.37
2022-10-18T18:10:16.362Z,13.35
2022-10-18T18:12:42.952Z,13.31
2022-10-18T18:15:11.094Z,13.29
2022-10-18T18:17:55.974Z,13.25
2022-10-18T18:20:23.042Z,13.22
2022-10-18T18:22:50.754Z,13.19
2022-10-18T18:25:17.394Z,13.14
2022-10-18T18:27:43.868Z,13.11
2022-10-18T18:30:11.898Z,13.08
2022-10-18T18:32:38.367Z,13.04
2022-10-18T18:35:05.676Z,13.02
2022-10-18T18:37:32.265Z,13.02
2022-10-18T18:39:58.697Z,12.99
2022-10-18T18:42:25.215Z,12.97
2022-10-18T18:44:51.676Z,12.95
2022-10-18T18:47:19.583Z,12.94
2022-10-18T18:49:46.023Z,12.93
2022-10-18T18:52:12.477Z,12.91
2022-10-18T18:54:38.928Z,12.90
2022-10-18T18:57:05.392Z,12.88
2022-10-18T18:59:31.840Z,12.86
2022-10-18T19:01:58.302Z,12.85
2022-10-18T19:04:26.096Z,12.82
2022-10-18T19:06:52.523Z,12.79
2022-10-18T19:09:21.737Z,12.77
2022-10-18T19:11:49.529Z,12.75
2022-10-18T19:14:16.291Z,12.73
2022-10-18T19:16:46.592Z,12.70
2022-10-18T19:19:15.192Z,12.67
2022-10-18T19:21:44.645Z,12.65
2022-10-18T19:24:11.661Z,12.63
2022-10-18T19:26:40.768Z,12.59
2022-10-18T19:29:09.597Z,12.56
2022-10-18T19:31:36.878Z,12.52
2022-10-18T19:34:04.559Z,12.49
2022-10-18T19:36:31.732Z,12.44
2022-10-18T19:38:59.834Z,12.41
2022-10-18T19:41:26.797Z,12.38
2022-10-18T19:43:53.333Z,12.34
2022-10-18T19:46:19.838Z,12.32
2022-10-18T19:48:46.322Z,12.30
2022-10-18T19:51:17.366Z,12.26
2022-10-18T19:53:47.720Z,12.23
2022-10-18T19:56:18.296Z,12.21
2022-10-18T19:58:45.287Z,12.19
2022-10-18T20:01:11.873Z,12.17
2022-10-18T20:03:38.335Z,12.16
2022-10-18T20:06:04.971Z,12.15
2022-10-18T20:08:33.414Z,12.13
2022-10-18T20:11:00.844Z,12.12
2022-10-18T20:13:28.916Z,12.11
2022-10-18T20:15:55.399Z,12.10
2022-10-18T20:18:21.905Z,12.08
2022-10-18T20:20:49.500Z,12.07
2022-10-18T20:23:16.277Z,12.05
2022-10-18T20:25:43.262Z,12.03
2022-10-18T20:28:12.858Z,12.02
2022-10-18T20:30:40.623Z,12.01
2022-10-18T20:33:07.028Z,12.00
2022-10-18T20:35:33.500Z,12.00
2022-10-18T20:37:59.933Z,11.99
2022-10-18T20:40:26.395Z,11.99
2022-10-18T20:42:54.381Z,11.98
2022-10-18T20:45:20.834Z,11.97
2022-10-18T20:47:48.701Z,11.96
2022-10-18T20:50:17.474Z,11.96
2022-10-18T20:52:43.907Z,11.96
2022-10-18T20:55:10.357Z,11.95
2022-10-18T20:57:36.829Z,11.95
2022-10-18T21:00:04.545Z,11.97
2022-10-18T21:02:30.959Z,11.97
2022-10-18T21:04:58.706Z,11.97
2022-10-18T21:07:25.164Z,11.96
2022-10-18T21:09:51.638Z,11.95
2022-10-18T21:12:18.147Z,11.95
2022-10-18T21:14:44.545Z,11.97
2022-10-18T21:17:11.042Z,11.98
2022-10-18T21:19:37.508Z,11.99
2022-10-18T21:22:05.493Z,12.01
2022-10-18T21:24:32.041Z,12.02
2022-10-18T21:26:58.522Z,12.03
2022-10-18T21:29:25.006Z,12.04
2022-10-18T21:31:53.928Z,12.03
2022-10-18T21:34:20.457Z,12.03
2022-10-18T21:36:51.761Z,12.04
2022-10-18T21:39:22.011Z,12.04
2022-10-18T21:41:49.291Z,12.04
2022-10-18T21:44:17.015Z,12.05
2022-10-18T21:46:43.728Z,12.06
2022-10-18T21:49:11.240Z,12.08
2022-10-18T21:51:38.235Z,12.10
2022-10-18T21:54:06.528Z,12.13
2022-10-18T21:56:35.274Z,12.15
2022-10-18T21:59:02.046Z,12.17
2022-10-18T22:01:30.717Z,12.18
2022-10-18T22:03:57.328Z,12.20
2022-10-18T22:06:24.974Z,12.22
2022-10-18T22:08:53.842Z,12.24
2022-10-18T22:11:23.701Z,12.26
2022-10-18T22:13:51.821Z,12.28
2022-10-18T22:16:18.815Z,12.30
2022-10-18T22:18:46.610Z,12.31
2022-10-18T22:21:14.862Z,12.33
2022-10-18T22:23:43.597Z,12.35
2022-10-18T22:26:12.265Z,12.35
2022-10-18T22:28:39.396Z,12.37
2022-10-18T22:31:14.202Z,12.39
2022-10-18T22:33:40.654Z,12.40
2022-10-18T22:36:07.344Z,12.43
2022-10-18T22:38:33.848Z,12.44
2022-10-18T22:41:03.941Z,12.47
2022-10-18T22:43:32.127Z,12.48
2022-10-18T22:46:00.225Z,12.47
2022-10-18T22:48:28.162Z,12.46
2022-10-18T22:50:54.723Z,12.47
2022-10-18T22:53:21.454Z,12.47
2022-10-18T22:55:48.061Z,12.47
2022-10-18T22:58:14.530Z,12.48
2022-10-18T23:00:41.292Z,12.49
2022-10-18T23:03:08.139Z,12.49
2022-10-18T23:05:38.134Z,12.50
2022-10-18T23:08:04.994Z,12.49
2022-10-18T23:10:31.435Z,12.49
2022-10-18T23:12:57.901Z,12.49
2022-10-18T23:15:24.429Z,12.51
2022-10-18T23:17:50.892Z,12.51
2022-10-18T23:20:17.512Z,12.52
2022-10-18T23:22:45.349Z,12.52
2022-10-18T23:25:11.807Z,12.53
2022-10-18T23:27:38.292Z,12.53
2022-10-18T23:30:05.775Z,12.53
2022-10-18T23:32:32.579Z,12.55
2022-10-18T23:34:59.310Z,12.57
2022-10-18T23:37:25.753Z,12.58
2022-10-18T23:39:53.541Z,12.59
2022-10-18T23:42:19.989Z,12.60
2022-10-18T23:44:46.563Z,12.59
2022-10-18T23:47:13.026Z,12.59
2022-10-18T23:49:39.453Z,12.58
2022-10-18T23:52:05.933Z,12.58
2022-10-18T23:54:32.404Z,12.57
2022-10-18T23:57:00.235Z,12.57
2022-10-18T23:59:26.842Z,12.57
